Aviation Digital Data Service (ADDS)

Output produced by METARs form (1130 UTC 19 June 2019)
found at http://www.aviationweather.gov/metar/data/
 
OIAA 191100Z 30019KT 8000 NSC 43/13 Q1000
TAF OIAA 191100Z 1912/2018 32020KT 6000 NSC 
     TEMPO 1912/1916 31022G32KT 1500 SA 
     PROB30 0600 SA/DU 
     BECMG 1917/1919 2000 DU 
     TEMPO 2012/2018 0500 DU
       
OIBA 191100Z 05008KT 6000 NSC 36/31 Q0993
OIAG 191100Z 34023KT CAVOK 46/M01 Q0997
OIAW 191100Z 30014KT CAVOK 42/03 Q0998
TAF OIAW 191100Z 1912/2018 32020KT 6000 NSC 
     TEMPO 1912/1918 30020G28KT 3000 SA 
     PROB40 1912/1918 1500 SA 
     BECMG 1918/1920 3000 DU 
     TEMPO 2012/2018 31020KT 1000 SA/DU 
     PROB40 0500 DU
       
OIHR 191100Z 33016KT 8000 FEW035 31/07 Q1011
OITL 191100Z 06025KT 9999 FEW040TCU FEW090 24/08 Q1014
OIKB 191100Z 20012KT 5000 HZ NSC 40/22 Q0994 A2937 NOSIG
TAF OIKB 191100Z 1912/2018 16006KT 5000 HZ NSC 
     BECMG 1918/1920 3000 BR/HZ 
     BECMG 2003/2005 16010KT 5000 HZ 
     TEMPO 2007/2015 16020KT 3000 SA
       
OIBL 191100Z 13010KT 5000 HZ NSC 39/23 Q0994
OIMB 191100Z 08012KT 9999 FEW045 33/M07 Q1011
OIMN 191100Z 30008KT 9999 FEW040CB FEW035TCU BKN170 30/10 Q1011 RETS
OIBB 191100Z 31012KT CAVOK 35/22 Q0997 A2944
OIZC 191100Z 14016KT 4000 SA NSC 35/28 Q0995 A2939
OIKQ 191100Z 19008KT 5000 HZ NSC 37/27 Q0994
OIFM 191100Z 16008KT 9999 FEW040 36/M03 Q1010 A2982
TAF OIFM 191100Z 1912/2018 30010KT 7000 NSC 
     TEMPO 1918/1921 23018KT 6000 FEW030TCU FEW035 SCT100 
     BECMG 2002/2004 4000 HZ 
     BECMG 2006/2008 7000 NSC
       
OISF 191100Z 23016KT CAVOK 39/M06 Q1001 A2958
OIAH 191100Z 26017KT CAVOK 41/M02 Q1002
OIIK 191100Z 27004KT 9999 FEW035TCU 34/10 Q1008
OING 191100Z 25010KT 9999 FEW030TCU FEW035CB SCT080 31/21 Q1007
OIHH 191100Z 24006G16KT CAVOK 31/00 Q1011
OICI 191100Z 29010KT CAVOK 31/05 Q1012 A2990
TAF OICI 191100Z 1912/2018 13008KT 8000 NSC 
     TEMPO 1912/1918 14012G22KT 4000 SA 
     TEMPO 2009/2012 14012G22KT 4000 SA
       
OIZI 191100Z 24008KT 9999 FEW040 SCT100 44/08 Q0998
OIZJ 191100Z 13010KT 7000 NSC 34/30 Q0994
OINE 191100Z 22012KT 9999 SCT030 BKN200 33/21 Q1006
OIKK 191100Z 08012KT 9999 SCT045 36/M10 Q1009 A2981
TAF OIKK 191100Z 1912/2018 08008KT 7000 FEW040 
     TEMPO 1912/1918 08012G24KT FEW035TCU SCT040 SCT100 
     TEMPO 2012/2018 08018KT FEW035CB SCT040 BKN100
       
OIBQ 191100Z 26016G27KT CAVOK 36/24 Q0997
OICK 191100Z 27010KT CAVOK 35/00 Q1008
OIBK 191100Z 21010KT 5000 HZ NSC 36/27 Q0995
TAF OIBK 191100Z 1912/2018 14012KT 5000 HZ NSC 
     TEMPO 1912/1918 24024KT 3000 SA 
     BECMG 1919/1921 3000 BR/HZ 
     BECMG 2003/2005 14008KT 5000 HZ 
     TEMPO 2009/2015 14020KT 4000 SA
       
OISR 191100Z 33004KT CAVOK 45/M05 Q0998 A2947
OISL 191100Z 34010KT CAVOK 43/05 Q1000
TAF OISL 191100Z 1912/2018 13004KT CAVOK 
     TEMPO 1915/1921 17018KT 4000 SA NSC 
     TEMPO 2012/2015 16018KT
       
OIBV 191100Z 29012KT 7000 NSC 38/21 Q0994
OIAM 191100Z 32023KT 7000 NSC 42/14 Q0997
OIMM 191100Z 06004KT 9999 FEW035CB SCT040 33/01 Q1010 A2983
TAF OIMM 191100Z 1912/2018 08006KT FEW035CB SCT040 BKN100 
     TEMPO 1912/1916 08012G22KT TS/SHRA SCT035CB SCT040 OVC100 
     BECMG 1920/1922 08010KT FEW040 
     TEMPO 2008/2016 08014G24KT FEW035CB SCT040 BKN100
       
OIII 191100Z 00000KT 9999 FEW040 34/02 Q1007 A2976
TAF OIII 191100Z 1912/2018 18004KT CAVOK 
     TEMPO 1918/1924 13018KT 6000 FEW035CB SCT040 SCT100 
     TEMPO 2012/2018 14018G24KT 5000 SA
       
OINN 191100Z 33006KT 9999 BKN027 29/21 Q1007
OITP 191100Z 08006KT CAVOK 34/14 Q1007
OIIP 191100Z 21010KT 8000 FEW040 34/01 Q1008
OINR 191100Z 34008KT 9999 SCT025TCU 29/22 Q1006
OIGG 191100Z 30004KT 9999 SCT100 SCT170 31/17 Q1007
OITM 191100Z 25008KT 9999 FEW036 31/06 Q1010
OICS 191100Z 17008KT 9999 FEW040 32/M02 Q1010 A2983
OIMC 191100Z 30008KT CAVOK 41/05 Q0999
OINZ 191100Z 28006KT 9999 TS FEW030CB SCT035 BKN090 30/21 Q1007
OIIS 191100Z 07006KT 9999 FEW035 SCT200 37/03 Q1009
OICC 191100Z 29008KT CAVOK 33/M09 Q1010 A2983 NOSIG
OIAI 191100Z 25010KT CAVOK 43/M17 Q0999
OIFS 191100Z 25006KT 9999 FEW040 32/M05 Q1015
OISS 191100Z 36006KT CAVOK 37/M11 Q1007 A2975
TAF OISS 191100Z 1912/2018 28008KT CAVOK 
     TEMPO 1915/1921 27018K
       
OIBS 191100Z 03014KT 5000 HZ NSC 34/29 Q0994
OIMT 191100Z AUTO 21002KT //// // ////// 43/03 Q1002
OITT 191100Z 11018KT 6000 VCSH FEW030TCU SCT032CB 25/06 Q1013 A2993 TEMPO TSRA
TAF OITT 191100Z 1912/2018 08008KT CAVOK 
     TEMPO 1912/1918 5000 SHRA FEW035CB SCT040 BKN100 
     PROB40 1912/1918 03018KT 5000 TSRA SCT030CB SCT035 BKN090 
     TEMPO 2012/2015 03018KT 5000 TSRA SCT030CB SCT035 BKN090
       
OIBJ 191100Z 31014KT CAVOK 42/04 Q1001
OITR 191100Z 10006KT 9999 FEW035CB FEW040 29/03 Q1010
TAF OITR 191100Z 1912/2018 01006KT CAVOK 
     TEMPO 2012/2018 06016KT 6000 FEW035TCU FEW040 SCT100
       
OISY 191100Z 00000KT CAVOK 34/M01 Q1013
OIYY 191100Z 02006KT 9999 FEW045 40/01 Q1005
OIZB 191100Z 33021KT CAVOK 40/05 Q0999
OIZH 191100Z 03008KT 9999 FEW040 36/M00 Q1009 A2980 NOSIG
TAF OIZH 191100Z 1912/2018 03010KT 7000 NSC 
     TEMPO 1912/1916 03020KT 5000 SA 
     TEMPO 2010/2016 03020KT 5000 SA
       
OITZ 191100Z 14006KT 9999 FEW030TCU SCT035 28/03 Q1012